Lady Caroline — WDE6297 — position and weather

sailwx.info

Track history (hours):
 
Tides and Currents Weather Stations Pressure Air Temp Water Temp Dewpoint Dewpoint Depression Visibility Wind Speed Wind Dir Waves Ship Positions

Lady Caroline

More information available from US FCC via Universal Licensing System.

Last reported at 2013-Nov-10 22:31 UTC. Time now 2014-Jul-24 17:45 UTC.
Position N 33°58' W 118°28'.
Warning: this ship's position is months out of date.

Length 33 m; draft 2.5 m.

Type: Pleasure craft. MMSI: 367378430.

Date/timePositionNaut miles runAvg speedWind from/ knotsBaromVisibWave heightAir tempDewpointWater temp
2013-Nov-10 22:31N 33°58' W 118°28'11 9.2
2013-Nov-10 21:18N 33°46' W 118°26'7 8.8
2013-Nov-10 20:33N 33°42' W 118°21'9 9.4
2013-Nov-10 19:33N 33°39' W 118°10'9 9.2
2013-Nov-10 18:34N 33°36' W 117°59'4 3.9
2013-Nov-10 17:34N 33°37' W 117°55'  
2013-Nov-06 22:33N 33°37' W 117°55'2 1.8
2013-Nov-06 21:33N 33°35' W 117°54'9 9.3
2013-Nov-06 20:33N 33°38' W 118°05'9 9.3
2013-Nov-06 19:33N 33°40' W 118°15'9 8.9
2013-Nov-06 18:33N 33°44' W 118°25'9 9.0
2013-Nov-06 17:32N 33°53' W 118°28'  
Track history (hours):
 
Tides and Currents Weather Stations Pressure Air Temp Water Temp Dewpoint Dewpoint Depression Visibility Wind Speed Wind Dir Waves Ship Positions

Lady Caroline

More information available from US FCC via Universal Licensing System.

Last reported at 2013-Nov-10 22:31 UTC. Time now 2014-Jul-24 17:45 UTC.
Position N 33°58' W 118°28'.
Warning: this ship's position is months out of date.

Length 33 m; draft 2.5 m.

Type: Pleasure craft. MMSI: 367378430.

Date/timePositionNaut miles runAvg speedWind from/ knotsBaromVisibWave heightAir tempDewpointWater temp
2013-Nov-10 22:31N 33°58' W 118°28'11 9.2
2013-Nov-10 21:18N 33°46' W 118°26'7 8.8
2013-Nov-10 20:33N 33°42' W 118°21'9 9.4
2013-Nov-10 19:33N 33°39' W 118°10'9 9.2
2013-Nov-10 18:34N 33°36' W 117°59'4 3.9
2013-Nov-10 17:34N 33°37' W 117°55'  
2013-Nov-06 22:33N 33°37' W 117°55'2 1.8
2013-Nov-06 21:33N 33°35' W 117°54'9 9.3
2013-Nov-06 20:33N 33°38' W 118°05'9 9.3
2013-Nov-06 19:33N 33°40' W 118°15'9 8.9
2013-Nov-06 18:33N 33°44' W 118°25'9 9.0
2013-Nov-06 17:32N 33°53' W 118°28'  

Dump ship's entire track history